Map

Track Data

SID SEASON NUMBER BASIN SUBBASIN NAME ISO_TIME NATURE LAT LON WMO_WIND WMO_PRES WMO_AGENCY TRACK_TYPE DIST2LAND LANDFALL IFLAG USA_AGENCY USA_ATCF_ID USA_LAT USA_LON USA_RECORD USA_STATUS USA_WIND USA_PRES USA_SSHS USA_R34_NE USA_R34_SE USA_R34_SW USA_R34_NW USA_R50_NE USA_R50_SE USA_R50_SW USA_R50_NW USA_R64_NE USA_R64_SE USA_R64_SW USA_R64_NW USA_POCI USA_ROCI USA_RMW USA_EYE TOKYO_LAT TOKYO_LON TOKYO_GRADE TOKYO_WIND TOKYO_PRES TOKYO_R50_DIR TOKYO_R50_LONG TOKYO_R50_SHORT TOKYO_R30_DIR TOKYO_R30_LONG TOKYO_R30_SHORT TOKYO_LAND CMA_LAT CMA_LON CMA_CAT CMA_WIND CMA_PRES HKO_LAT HKO_LON HKO_CAT HKO_WIND HKO_PRES NEWDELHI_LAT NEWDELHI_LON NEWDELHI_GRADE NEWDELHI_WIND NEWDELHI_PRES NEWDELHI_CI NEWDELHI_DP NEWDELHI_POCI REUNION_LAT REUNION_LON REUNION_TYPE REUNION_WIND REUNION_PRES REUNION_TNUM REUNION_CI REUNION_RMW REUNION_R34_NE REUNION_R34_SE REUNION_R34_SW REUNION_R34_NW REUNION_R50_NE REUNION_R50_SE REUNION_R50_SW REUNION_R50_NW REUNION_R64_NE REUNION_R64_SE REUNION_R64_SW REUNION_R64_NW BOM_LAT BOM_LON BOM_TYPE BOM_WIND BOM_PRES BOM_TNUM BOM_CI BOM_RMW BOM_R34_NE BOM_R34_SE BOM_R34_SW BOM_R34_NW BOM_R50_NE BOM_R50_SE BOM_R50_SW BOM_R50_NW BOM_R64_NE BOM_R64_SE BOM_R64_SW BOM_R64_NW BOM_ROCI BOM_POCI BOM_EYE BOM_POS_METHOD BOM_PRES_METHOD NADI_LAT NADI_LON NADI_CAT NADI_WIND NADI_PRES WELLINGTON_LAT WELLINGTON_LON WELLINGTON_WIND WELLINGTON_PRES DS824_LAT DS824_LON DS824_STAGE DS824_WIND DS824_PRES TD9636_LAT TD9636_LON TD9636_STAGE TD9636_WIND TD9636_PRES TD9635_LAT TD9635_LON TD9635_WIND TD9635_PRES TD9635_ROCI NEUMANN_LAT NEUMANN_LON NEUMANN_CLASS NEUMANN_WIND NEUMANN_PRES MLC_LAT MLC_LON MLC_CLASS MLC_WIND MLC_PRES USA_GUST BOM_GUST BOM_GUST_PER REUNION_GUST REUNION_GUST_PER USA_SEAHGT USA_SEARAD_NE USA_SEARAD_SE USA_SEARAD_SW USA_SEARAD_NW STORM_SPEED STORM_DIR
1967162N28297 1967 36 NA NA NOT_NAMED 1967-06-10 12:00:00 TS 28.0000 -63.0000 hurdat_atl main 1105 1105 O_____________ hurdat_atl AL021967 28.0000 -63.0000 TD -1 5 5
1967162N28297 1967 36 NA NA NOT_NAMED 1967-06-10 15:00:00 TS 28.2300 -62.9777 main 1126 1126 P_____________ AL021967 28.2300 -62.9777 TD -1 5 2
1967162N28297 1967 36 NA NA NOT_NAMED 1967-06-10 18:00:00 TS 28.5000 -63.0000 hurdat_atl main 1159 1159 O_____________ hurdat_atl AL021967 28.5000 -63.0000 TD -1 6 351
1967162N28297 1967 36 NA NA NOT_NAMED 1967-06-10 21:00:00 TS 28.8350 -63.0923 main 1189 1189 P_____________ AL021967 28.8350 -63.0923 TD -1 7 346
1967162N28297 1967 36 NA NA NOT_NAMED 1967-06-11 00:00:00 TS 29.2000 -63.2000 hurdat_atl main 1231 1231 O_____________ hurdat_atl AL021967 29.2000 -63.2000 TD -1 7 350
1967162N28297 1967 36 NA NA NOT_NAMED 1967-06-11 03:00:00 TS 29.5124 -63.2281 main 1264 1264 P_____________ AL021967 29.5124 -63.2281 TD -1 7 353
1967162N28297 1967 36 NA NA NOT_NAMED 1967-06-11 06:00:00 TS 29.9000 -63.3000 hurdat_atl main 1305 1266 O_____________ hurdat_atl AL021967 29.9000 -63.3000 TD -1 10 346
1967162N28297 1967 36 NA NA NOT_NAMED 1967-06-11 09:00:00 TS 30.4625 -63.5049 main 1260 1202 P_____________ AL021967 30.4625 -63.5049 TD -1 13 340
1967162N28297 1967 36 NA NA NOT_NAMED 1967-06-11 12:00:00 TS 31.1000 -63.8000 hurdat_atl main 1202 1145 O_____________ hurdat_atl AL021967 31.1000 -63.8000 TD -1 14 337
1967162N28297 1967 36 NA NA NOT_NAMED 1967-06-11 15:00:00 TS 31.7300 -64.1348 main 1145 1083 P_____________ AL021967 31.7300 -64.1348 TD -1 13 334
1967162N28297 1967 36 NA NA NOT_NAMED 1967-06-11 18:00:00 TS 32.3000 -64.5000 hurdat_atl main 1083 1039 O_____________ hurdat_atl AL021967 32.3000 -64.5000 TD -1 12 329
1967162N28297 1967 36 NA NA NOT_NAMED 1967-06-11 21:00:00 TS 32.7224 -64.8507 main 1031 988 P_____________ AL021967 32.7224 -64.8507 TD -1 10 324
1967162N28297 1967 36 NA NA NOT_NAMED 1967-06-12 00:00:00 TS 33.1000 -65.2000 hurdat_atl main 988 935 O_____________ hurdat_atl AL021967 33.1000 -65.2000 TD -1 11 324
1967162N28297 1967 36 NA NA NOT_NAMED 1967-06-12 03:00:00 TS 33.6027 -65.6092 main 935 895 P_____________ AL021967 33.6027 -65.6092 TD -1 11 327
1967162N28297 1967 36 NA NA NOT_NAMED 1967-06-12 06:00:00 TS 34.0000 -65.9000 hurdat_atl main 895 892 O_____________ hurdat_atl AL021967 34.0000 -65.9000 TD -1 6 334
1967162N28297 1967 36 NA NA NOT_NAMED 1967-06-12 09:00:00 TS 34.1099 -65.9106 main 892 892 P_____________ AL021967 34.1099 -65.9106 TD -1 1 37
1967162N28297 1967 36 NA NA NOT_NAMED 1967-06-12 12:00:00 TS 34.1000 -65.8000 hurdat_atl main 901 901 O_____________ hurdat_atl AL021967 34.1000 -65.8000 TD -1 1 77
1967162N28297 1967 36 NA NA NOT_NAMED 1967-06-12 15:00:00 TS 34.1349 -65.7724 main 901 899 P_____________ AL021967 34.1349 -65.7724 TD -1 1 37
1967162N28297 1967 36 NA NA NOT_NAMED 1967-06-12 18:00:00 TS 34.2000 -65.7000 hurdat_atl main 907 907 O_____________ hurdat_atl AL021967 34.2000 -65.7000 TD -1 3 47
1967162N28297 1967 36 NA NA NOT_NAMED 1967-06-12 21:00:00 TS 34.3351 -65.5151 main 912 896 P_____________ AL021967 34.3351 -65.5151 TD -1 4 48
1967162N28297 1967 36 NA NA NOT_NAMED 1967-06-13 00:00:00 TS 34.5000 -65.3000 hurdat_atl main 900 894 O_____________ hurdat_atl AL021967 34.5000 -65.3000 TD -1 4 45
1967162N28297 1967 36 NA NA NOT_NAMED 1967-06-13 03:00:00 TS 34.6500 -65.1349 main 898 882 P_____________ AL021967 34.6500 -65.1349 TD -1 4 39
1967162N28297 1967 36 NA NA NOT_NAMED 1967-06-13 06:00:00 TS 34.8000 -65.0000 hurdat_atl main 882 872 O_____________ hurdat_atl AL021967 34.8000 -65.0000 TD -1 4 34
1967162N28297 1967 36 NA NA NOT_NAMED 1967-06-13 09:00:00 TS 34.9500 -64.8926 main 867 862 P_____________ AL021967 34.9500 -64.8926 TD -1 3 28
1967162N28297 1967 36 NA NA NOT_NAMED 1967-06-13 12:00:00 TS 35.1000 -64.8000 hurdat_atl main 862 O_____________ hurdat_atl AL021967 35.1000 -64.8000 TD -1 3 27

About IBTrACS Database

This database is a web-friendly format of International Best Track Archive for Climate Stewardship (IBTrACS), a global best track data archive curated by NOAA dating back to 1842.

Updated: 2021-12-03